Time;durP1;ratioP1;P1;durP2;ratioP2;P2;SDS_P1;SDS_P2;PMS_P1;PMS_P2;Temp;Humidity;BMP_temperature;BMP_pressure;BME280_temperature;BME280_humidity;BME280_pressure;Samples;Min_cycle;Max_cycle;Signal;HPM_P1;HPM_P2
2023/01/18 00:03:24;;;;;;;;;;;;;;;19.28;33.96;92706.09;10349609;28;1939;-46
2023/01/18 00:08:24;;;;;;;;;;;;;;;19.27;33.85;92699.28;10347220;28;1948;-45
2023/01/18 00:13:25;;;;;;;;;;;;;;;19.25;33.76;92692.84;10350192;28;1975;-44
2023/01/18 00:18:25;;;;;;;;;;;;;;;19.26;33.72;92691.75;10353322;28;1923;-43
2023/01/18 00:23:25;;;;;;;;;;;;;;;19.25;33.65;92688.38;10348210;28;1947;-46
2023/01/18 00:28:25;;;;;;;;;;;;;;;19.18;33.94;92690.84;10342762;28;2003;-46
2023/01/18 00:33:26;;;;;;;;;;;;;;;19.19;33.59;92688.94;10346664;28;1954;-45
2023/01/18 00:38:26;;;;;;;;;;;;;;;19.20;33.58;92690.50;10343997;28;1986;-45
2023/01/18 00:43:38;;;;;;;;;;;;;;;19.11;33.78;92688.03;10346101;28;2003;-43
2023/01/18 00:48:39;;;;;;;;;;;;;;;19.13;33.68;92687.69;10346962;28;1940;-44
2023/01/18 00:53:39;;;;;;;;;;;;;;;19.13;33.46;92677.16;10342452;28;2117;-45
2023/01/18 00:58:39;;;;;;;;;;;;;;;19.11;33.54;92682.00;10342237;28;1988;-44
2023/01/18 01:08:59;;;;;;;;;;;;;;;19.05;33.63;92681.50;10364827;28;1979;-49
2023/01/18 01:29:55;;;;;;;;;;;;;;;18.99;33.47;92697.81;10353273;28;1974;-45
2023/01/18 01:34:56;;;;;;;;;;;;;;;18.98;33.46;92698.94;10348174;28;1967;-45
2023/01/18 01:39:56;;;;;;;;;;;;;;;18.94;33.33;92709.31;10352802;28;2066;-45
2023/01/18 01:44:56;;;;;;;;;;;;;;;18.93;33.32;92710.44;10351101;28;2106;-44
2023/01/18 01:49:57;;;;;;;;;;;;;;;18.94;33.35;92709.31;10356092;28;2014;-43
2023/01/18 01:54:58;;;;;;;;;;;;;;;18.90;33.43;92711.09;10349534;28;1995;-43
2023/01/18 01:59:58;;;;;;;;;;;;;;;18.87;33.52;92726.75;10355691;28;2379;-45
2023/01/18 02:04:58;;;;;;;;;;;;;;;18.93;33.32;92726.19;10355284;28;2038;-46
2023/01/18 02:09:58;;;;;;;;;;;;;;;18.84;33.50;92738.66;10357792;28;2164;-44
2023/01/18 02:14:59;;;;;;;;;;;;;;;18.85;33.41;92745.47;10347932;28;2051;-46
2023/01/18 02:19:59;;;;;;;;;;;;;;;18.80;33.53;92745.69;10348448;28;2044;-44
2023/01/18 02:24:59;;;;;;;;;;;;;;;18.78;33.38;92762.84;10354596;28;2173;-47
2023/01/18 02:30:18;;;;;;;;;;;;;;;18.78;33.37;92771.50;10361437;28;2048;-44
2023/01/18 02:35:24;;;;;;;;;;;;;;;18.73;33.53;92774.38;10370567;28;2109;-45
2023/01/18 02:40:40;;;;;;;;;;;;;;;18.74;33.63;92781.13;10365974;28;2114;-44
2023/01/18 02:51:00;;;;;;;;;;;;;;;18.73;33.32;92795.38;10363318;28;2131;-46
2023/01/18 02:56:01;;;;;;;;;;;;;;;18.68;33.42;92792.97;10346031;28;2043;-45
2023/01/18 03:01:05;;;;;;;;;;;;;;;18.71;33.24;92794.16;10353202;28;2103;-45
2023/01/18 03:06:06;;;;;;;;;;;;;;;18.65;33.27;92788.34;10358897;28;2051;-45
2023/01/18 03:11:17;;;;;;;;;;;;;;;18.64;33.27;92787.63;10357231;28;2064;-44
2023/01/18 03:16:24;;;;;;;;;;;;;;;18.63;33.41;92795.81;10365271;28;2050;-45
2023/01/18 03:21:26;;;;;;;;;;;;;;;18.62;33.08;92789.03;10340143;28;2047;-44
2023/01/18 03:26:27;;;;;;;;;;;;;;;18.60;33.28;92792.00;10333081;28;2082;-43
2023/01/18 03:37:07;;;;;;;;;;;;;;;18.55;33.23;92796.69;10348185;28;2058;-47
2023/01/18 03:42:12;;;;;;;;;;;;;;;18.48;33.43;92791.25;10361694;28;2081;-47
2023/01/18 03:47:12;;;;;;;;;;;;;;;18.51;33.21;92796.59;10357349;28;2135;-44
2023/01/18 03:52:12;;;;;;;;;;;;;;;18.49;33.19;92801.41;10349940;28;2110;-45
2023/01/18 03:57:36;;;;;;;;;;;;;;;18.48;33.33;92812.25;10351287;28;2027;-44
2023/01/18 04:02:36;;;;;;;;;;;;;;;18.46;33.26;92806.56;10344166;28;2194;-44
2023/01/18 04:07:36;;;;;;;;;;;;;;;18.47;33.11;92803.59;10343363;28;2113;-44
2023/01/18 04:12:36;;;;;;;;;;;;;;;18.41;33.37;92809.38;10345986;28;2120;-44
2023/01/18 04:17:38;;;;;;;;;;;;;;;18.39;33.40;92811.56;10349239;28;2074;-44
2023/01/18 04:22:38;;;;;;;;;;;;;;;18.41;33.23;92804.13;10340403;28;2231;-45
2023/01/18 04:27:38;;;;;;;;;;;;;;;18.37;33.09;92798.78;10351975;28;2357;-44
2023/01/18 04:32:41;;;;;;;;;;;;;;;18.37;33.10;92793.53;10355295;28;2054;-43
2023/01/18 04:37:41;;;;;;;;;;;;;;;18.36;33.32;92783.38;10346026;28;2003;-47
2023/01/18 04:42:42;;;;;;;;;;;;;;;18.32;33.43;92779.91;10338823;28;2042;-44
2023/01/18 04:47:42;;;;;;;;;;;;;;;18.30;33.36;92787.31;10341808;28;2356;-44
2023/01/18 04:52:42;;;;;;;;;;;;;;;18.34;32.97;92794.19;10345997;28;2155;-43
2023/01/18 04:57:43;;;;;;;;;;;;;;;18.31;33.19;92788.84;10340739;28;2056;-45
2023/01/18 05:02:43;;;;;;;;;;;;;;;18.25;33.34;92804.03;10340783;28;2150;-44
2023/01/18 05:07:43;;;;;;;;;;;;;;;18.22;33.19;92811.78;10346481;28;2117;-44
2023/01/18 05:12:44;;;;;;;;;;;;;;;18.40;32.79;92816.47;10345851;28;2141;-44
2023/01/18 05:17:44;;;;;;;;;;;;;;;18.45;32.78;92820.75;10353819;28;2057;-46
2023/01/18 05:22:44;;;;;;;;;;;;;;;18.48;32.59;92822.72;10353298;28;2092;-48
2023/01/18 05:27:44;;;;;;;;;;;;;;;18.51;32.61;92830.69;10346288;28;2256;-48
2023/01/18 05:32:45;;;;;;;;;;;;;;;18.59;32.34;92832.44;10348515;28;1980;-46
2023/01/18 05:37:45;;;;;;;;;;;;;;;18.53;31.43;92830.34;10358163;28;2020;-44
2023/01/18 05:42:45;;;;;;;;;;;;;;;18.47;30.78;92836.94;10359881;28;2016;-47
2023/01/18 05:47:45;;;;;;;;;;;;;;;18.47;30.42;92842.16;10357198;28;2124;-45
2023/01/18 05:52:46;;;;;;;;;;;;;;;18.50;30.34;92849.41;10356430;28;1979;-43
2023/01/18 05:57:46;;;;;;;;;;;;;;;18.52;30.39;92855.06;10354794;28;2030;-45
2023/01/18 06:02:46;;;;;;;;;;;;;;;18.54;30.11;92858.13;10347094;28;1955;-43
2023/01/18 06:07:46;;;;;;;;;;;;;;;18.58;29.83;92867.66;10349411;28;2071;-43
2023/01/18 06:12:47;;;;;;;;;;;;;;;18.62;29.93;92875.63;10346808;28;2116;-44
2023/01/18 06:17:47;;;;;;;;;;;;;;;18.64;29.83;92882.06;10349981;28;2192;-44
2023/01/18 06:22:47;;;;;;;;;;;;;;;18.67;29.94;92883.25;10342300;28;2133;-44
2023/01/18 06:27:47;;;;;;;;;;;;;;;18.69;29.83;92888.97;10343903;28;2078;-45
2023/01/18 06:32:48;;;;;;;;;;;;;;;18.73;29.63;92902.19;10363303;28;1982;-44
2023/01/18 06:37:49;;;;;;;;;;;;;;;18.76;29.57;92902.28;10357277;28;2230;-44
2023/01/18 06:42:50;;;;;;;;;;;;;;;18.77;29.50;92895.94;10344920;28;2062;-44
2023/01/18 06:47:50;;;;;;;;;;;;;;;18.80;29.49;92912.88;10350393;28;2040;-44
2023/01/18 06:52:51;;;;;;;;;;;;;;;18.83;29.33;92913.00;10351542;28;2046;-47
2023/01/18 06:57:51;;;;;;;;;;;;;;;18.85;29.40;92928.41;10347757;28;2080;-43
2023/01/18 07:02:55;;;;;;;;;;;;;;;18.87;29.24;92932.22;10353706;28;2032;-44
2023/01/18 07:07:55;;;;;;;;;;;;;;;18.91;29.08;92940.19;10351899;28;1984;-45
2023/01/18 07:12:55;;;;;;;;;;;;;;;18.91;29.30;92937.56;10344674;28;2055;-44
2023/01/18 07:17:55;;;;;;;;;;;;;;;18.93;28.75;92940.63;10344063;28;2058;-45
2023/01/18 07:22:57;;;;;;;;;;;;;;;18.97;29.32;92944.91;10347305;28;2397;-44
2023/01/18 07:27:57;;;;;;;;;;;;;;;18.99;29.50;92949.81;10347788;28;2132;-45
2023/01/18 07:32:57;;;;;;;;;;;;;;;18.99;29.85;92958.47;10352080;28;2074;-43
2023/01/18 07:37:58;;;;;;;;;;;;;;;18.99;30.08;92963.72;10341443;28;2110;-43
2023/01/18 07:42:58;;;;;;;;;;;;;;;19.00;29.64;92973.09;10339733;28;2102;-44
2023/01/18 07:47:58;;;;;;;;;;;;;;;19.03;29.55;92980.34;10343611;28;2103;-44
2023/01/18 07:53:03;;;;;;;;;;;;;;;19.02;29.39;92970.19;10352483;28;2007;-45
2023/01/18 07:58:03;;;;;;;;;;;;;;;19.02;29.65;92984.03;10339050;28;2145;-43
2023/01/18 08:03:03;;;;;;;;;;;;;;;19.06;29.47;92990.16;10360797;28;2355;-46
2023/01/18 08:08:06;;;;;;;;;;;;;;;19.05;29.17;93004.41;10338655;28;2075;-44
2023/01/18 08:13:09;;;;;;;;;;;;;;;19.06;29.16;93015.66;10345470;28;2121;-43
2023/01/18 08:18:11;;;;;;;;;;;;;;;19.09;29.22;93018.41;10347076;28;2116;-46
2023/01/18 08:23:12;;;;;;;;;;;;;;;19.15;30.00;93034.69;10356883;28;2030;-46
2023/01/18 08:28:12;;;;;;;;;;;;;;;19.21;30.04;93039.41;10347464;28;2046;-44
2023/01/18 08:33:12;;;;;;;;;;;;;;;19.28;30.72;93044.09;10346681;28;2207;-46
2023/01/18 08:38:13;;;;;;;;;;;;;;;19.26;31.21;93057.56;10348418;28;2077;-44
2023/01/18 08:43:14;;;;;;;;;;;;;;;19.26;30.74;93054.16;10349170;28;1962;-45
2023/01/18 08:48:14;;;;;;;;;;;;;;;19.24;31.39;93072.88;10350424;28;2081;-44
2023/01/18 08:53:14;;;;;;;;;;;;;;;19.23;31.49;93083.69;10343148;28;2106;-47
2023/01/18 08:58:14;;;;;;;;;;;;;;;19.22;31.76;93096.09;10347829;28;2072;-44
2023/01/18 09:03:19;;;;;;;;;;;;;;;19.19;31.36;93101.97;10346130;28;2070;-45
2023/01/18 09:08:19;;;;;;;;;;;;;;;19.24;32.72;93099.16;10346403;28;2209;-44
2023/01/18 09:13:19;;;;;;;;;;;;;;;19.25;32.61;93110.41;10343902;28;2332;-49
2023/01/18 09:18:20;;;;;;;;;;;;;;;19.22;32.82;93118.94;10359116;28;2120;-43
2023/01/18 09:23:21;;;;;;;;;;;;;;;19.20;32.58;93134.28;10373353;28;2035;-45
2023/01/18 09:28:21;;;;;;;;;;;;;;;19.21;32.47;93156.78;10359784;28;1983;-44
2023/01/18 09:33:21;;;;;;;;;;;;;;;19.14;32.74;93162.59;10372114;28;2081;-45
2023/01/18 09:38:22;;;;;;;;;;;;;;;19.10;32.81;93169.56;10358045;28;2034;-46
2023/01/18 09:43:25;;;;;;;;;;;;;;;19.08;32.93;93179.63;10357154;28;2380;-46
2023/01/18 09:48:27;;;;;;;;;;;;;;;19.03;33.01;93187.75;10360723;28;2057;-47
2023/01/18 09:53:36;;;;;;;;;;;;;;;19.03;33.03;93200.88;10373214;28;1996;-44
2023/01/18 09:58:47;;;;;;;;;;;;;;;18.96;33.39;93205.88;10347779;28;2144;-42
2023/01/18 10:03:51;;;;;;;;;;;;;;;18.98;33.20;93224.69;10354033;28;2015;-42
2023/01/18 10:09:03;;;;;;;;;;;;;;;18.97;32.86;93236.28;10353154;28;2003;-42
2023/01/18 10:14:04;;;;;;;;;;;;;;;19.02;32.49;93254.44;10354103;28;2069;-48
2023/01/18 10:19:09;;;;;;;;;;;;;;;19.01;32.54;93249.53;10347123;28;2082;-42
2023/01/18 10:24:20;;;;;;;;;;;;;;;19.00;32.21;93253.25;10368474;28;2007;-43
2023/01/18 10:29:20;;;;;;;;;;;;;;;18.98;31.87;93261.44;10354954;28;2035;-43
2023/01/18 10:34:21;;;;;;;;;;;;;;;19.01;31.83;93265.28;10356225;28;2050;-42
2023/01/18 10:39:34;;;;;;;;;;;;;;;19.05;30.88;93264.31;10341884;28;2068;-43
2023/01/18 10:44:35;;;;;;;;;;;;;;;19.00;30.60;93282.88;10364366;28;2076;-42
2023/01/18 10:49:36;;;;;;;;;;;;;;;19.01;30.99;93289.69;10345880;28;2029;-46
2023/01/18 10:54:36;;;;;;;;;;;;;;;18.98;30.48;93292.94;10351460;28;2042;-45
2023/01/18 10:59:38;;;;;;;;;;;;;;;19.02;30.60;93312.22;10344836;28;2028;-45
2023/01/18 11:04:40;;;;;;;;;;;;;;;19.07;30.49;93304.16;10346765;28;2091;-44
2023/01/18 11:09:50;;;;;;;;;;;;;;;19.04;29.79;93304.78;10365311;28;2034;-44
2023/01/18 11:14:50;;;;;;;;;;;;;;;19.02;29.99;93317.47;10352847;28;2064;-46
2023/01/18 11:20:04;;;;;;;;;;;;;;;19.02;29.70;93322.72;10357473;28;2068;-44
2023/01/18 11:25:04;;;;;;;;;;;;;;;19.09;30.03;93338.72;10360735;28;2020;-43
2023/01/18 11:30:13;;;;;;;;;;;;;;;19.11;29.95;93341.81;10347201;28;2115;-44
2023/01/18 11:35:19;;;;;;;;;;;;;;;19.10;29.59;93350.75;10362862;28;2087;-43
2023/01/18 11:40:27;;;;;;;;;;;;;;;19.08;29.55;93352.94;10351705;28;2087;-44
2023/01/18 11:45:39;;;;;;;;;;;;;;;19.09;29.53;93359.72;10351756;28;2089;-45
2023/01/18 11:50:42;;;;;;;;;;;;;;;19.31;30.63;93367.28;10360646;28;2119;-45
2023/01/18 11:55:56;;;;;;;;;;;;;;;19.40;30.73;93375.88;10342860;28;2157;-43
2023/01/18 12:01:20;;;;;;;;;;;;;;;19.38;30.08;93378.06;10345561;28;1995;-43
2023/01/18 12:06:37;;;;;;;;;;;;;;;19.38;30.40;93399.09;10346300;28;2112;-43
2023/01/18 12:11:45;;;;;;;;;;;;;;;19.54;32.03;93393.25;10345551;28;1998;-46
2023/01/18 12:16:53;;;;;;;;;;;;;;;19.57;30.37;93403.09;10364663;28;2074;-44
2023/01/18 12:22:03;;;;;;;;;;;;;;;19.67;32.65;93411.34;10358343;28;2197;-42
2023/01/18 12:27:19;;;;;;;;;;;;;;;19.70;32.64;93423.84;10351416;28;2067;-45
2023/01/18 12:32:23;;;;;;;;;;;;;;;19.75;33.25;93426.28;10352028;28;2006;-44
2023/01/18 12:37:44;;;;;;;;;;;;;;;19.84;33.52;93448.00;10350967;28;2027;-42
2023/01/18 12:42:45;;;;;;;;;;;;;;;19.84;33.06;93468.25;10352456;28;2040;-43
2023/01/18 12:47:57;;;;;;;;;;;;;;;19.78;32.73;93475.59;10345538;28;2181;-43
2023/01/18 12:52:58;;;;;;;;;;;;;;;19.74;32.58;93484.44;10354913;28;2041;-46
2023/01/18 12:57:58;;;;;;;;;;;;;;;19.69;31.55;93487.25;10360048;28;2189;-44
2023/01/18 13:02:59;;;;;;;;;;;;;;;19.71;32.18;93498.97;10344026;28;2183;-44
2023/01/18 13:08:09;;;;;;;;;;;;;;;19.73;32.27;93496.03;10358438;28;2221;-44
2023/01/18 13:13:11;;;;;;;;;;;;;;;19.77;31.39;93499.53;10372627;28;2083;-43
2023/01/18 13:18:25;;;;;;;;;;;;;;;19.82;30.35;93515.91;10360920;28;2034;-44
2023/01/18 13:23:44;;;;;;;;;;;;;;;19.91;31.68;93521.84;10364563;28;2048;-44
2023/01/18 13:28:45;;;;;;;;;;;;;;;20.08;30.24;93526.19;10365606;28;2061;-43
2023/01/18 13:33:45;;;;;;;;;;;;;;;20.14;30.14;93530.94;10361928;28;2042;-43
2023/01/18 13:38:53;;;;;;;;;;;;;;;20.08;29.78;93548.00;10370330;28;2232;-45
2023/01/18 13:44:23;;;;;;;;;;;;;;;20.02;30.10;93559.03;10359198;28;2022;-45
2023/01/18 13:49:30;;;;;;;;;;;;;;;20.00;29.60;93583.03;10357223;28;1983;-43
2023/01/18 13:54:31;;;;;;;;;;;;;;;19.96;29.18;93586.63;10352178;28;2045;-44
2023/01/18 13:59:45;;;;;;;;;;;;;;;19.96;29.25;93581.38;10363174;28;2218;-43
2023/01/18 14:04:45;;;;;;;;;;;;;;;20.00;30.71;93584.91;10357933;28;2034;-44
2023/01/18 14:09:46;;;;;;;;;;;;;;;19.96;30.82;93597.16;10368065;28;2065;-44
2023/01/18 14:14:51;;;;;;;;;;;;;;;19.94;30.42;93609.84;10355903;28;2018;-43
2023/01/18 14:19:56;;;;;;;;;;;;;;;20.00;31.93;93627.75;10365798;28;2007;-42
2023/01/18 14:24:59;;;;;;;;;;;;;;;20.03;32.53;93640.25;10355862;28;2010;-43
2023/01/18 14:30:07;;;;;;;;;;;;;;;20.03;32.54;93644.75;10366392;28;2026;-44
2023/01/18 14:35:18;;;;;;;;;;;;;;;20.02;32.91;93646.59;10371192;28;2028;-58
2023/01/18 14:40:19;;;;;;;;;;;;;;;20.00;31.97;93655.91;10349977;28;2057;-44
2023/01/18 14:45:23;;;;;;;;;;;;;;;20.03;31.10;93661.28;10375758;28;2112;-44
2023/01/18 14:50:24;;;;;;;;;;;;;;;19.84;29.92;93657.56;10351640;28;2066;-53
2023/01/18 14:55:28;;;;;;;;;;;;;;;19.86;29.95;93671.16;10363835;28;2068;-44
2023/01/18 15:00:28;;;;;;;;;;;;;;;19.87;29.90;93680.56;10355377;28;2006;-43
2023/01/18 15:05:29;;;;;;;;;;;;;;;20.03;31.90;93692.09;10359019;28;1994;-42
2023/01/18 15:10:29;;;;;;;;;;;;;;;19.83;29.41;93690.16;10355522;28;2006;-45
2023/01/18 15:15:31;;;;;;;;;;;;;;;19.99;31.20;93705.09;10371204;28;1933;-43
2023/01/18 15:20:32;;;;;;;;;;;;;;;20.11;32.74;93710.41;10366990;28;2006;-44
2023/01/18 15:25:33;;;;;;;;;;;;;;;20.24;30.34;93721.81;10352738;28;2015;-45
2023/01/18 15:30:33;;;;;;;;;;;;;;;20.32;29.26;93736.78;10356785;28;1896;-43
2023/01/18 15:35:33;;;;;;;;;;;;;;;20.36;30.13;93739.56;10345182;28;1990;-43
2023/01/18 15:40:34;;;;;;;;;;;;;;;20.36;28.96;93753.47;10344797;28;1962;-44
2023/01/18 15:45:37;;;;;;;;;;;;;;;20.41;28.99;93757.78;10350648;28;1974;-44
2023/01/18 15:50:44;;;;;;;;;;;;;;;20.46;28.76;93770.78;10352029;28;2006;-43
2023/01/18 15:55:51;;;;;;;;;;;;;;;20.47;28.70;93775.69;10356425;28;2105;-42
2023/01/18 16:00:55;;;;;;;;;;;;;;;20.47;28.15;93775.69;10350128;28;1966;-45
2023/01/18 16:05:56;;;;;;;;;;;;;;;20.43;28.15;93785.31;10350609;28;2047;-45
2023/01/18 16:10:56;;;;;;;;;;;;;;;20.40;28.35;93788.63;10347196;28;2019;-44
2023/01/18 16:16:05;;;;;;;;;;;;;;;20.42;28.05;93810.13;10349248;28;1982;-44
2023/01/18 16:21:08;;;;;;;;;;;;;;;20.43;27.88;93816.91;10347695;28;2070;-47
2023/01/18 16:26:09;;;;;;;;;;;;;;;20.45;28.01;93827.09;10361591;28;1989;-47
2023/01/18 16:31:09;;;;;;;;;;;;;;;20.49;27.67;93835.91;10361857;28;1954;-44
2023/01/18 16:36:13;;;;;;;;;;;;;;;20.53;27.65;93840.22;10349844;28;1978;-47
2023/01/18 16:41:15;;;;;;;;;;;;;;;20.58;27.68;93850.59;10360960;28;2100;-44
2023/01/18 16:46:16;;;;;;;;;;;;;;;20.64;27.52;93861.69;10355599;28;1955;-44
2023/01/18 16:51:17;;;;;;;;;;;;;;;20.67;27.32;93868.97;10348216;28;2020;-45
2023/01/18 16:56:17;;;;;;;;;;;;;;;20.73;27.37;93883.50;10349631;28;1986;-45
2023/01/18 17:01:17;;;;;;;;;;;;;;;20.84;27.66;93901.22;10362421;28;2037;-52
2023/01/18 17:06:18;;;;;;;;;;;;;;;20.85;27.50;93899.38;10343929;28;1978;-45
2023/01/18 17:11:19;;;;;;;;;;;;;;;20.93;28.25;93919.63;10341591;28;2106;-59
2023/01/18 17:16:19;;;;;;;;;;;;;;;21.00;29.80;93936.44;10336551;28;2051;-46
2023/01/18 17:21:19;;;;;;;;;;;;;;;20.94;29.52;93937.72;10368980;28;2039;-42
2023/01/18 17:26:19;;;;;;;;;;;;;;;20.99;29.50;93942.81;10348161;28;2066;-42
2023/01/18 17:31:20;;;;;;;;;;;;;;;20.95;29.29;93960.34;10346434;28;2086;-43
2023/01/18 17:36:20;;;;;;;;;;;;;;;20.96;29.30;93966.38;10346674;28;2002;-42
2023/01/18 17:41:23;;;;;;;;;;;;;;;21.03;30.04;93974.59;10373712;28;1907;-47
2023/01/18 17:46:24;;;;;;;;;;;;;;;21.04;30.08;93984.03;10363913;28;2199;-45
2023/01/18 17:51:24;;;;;;;;;;;;;;;20.94;29.13;93990.41;10369048;28;1803;-45
2023/01/18 17:56:24;;;;;;;;;;;;;;;20.95;29.48;93994.59;10357758;28;2002;-47
2023/01/18 18:01:25;;;;;;;;;;;;;;;20.93;29.97;94001.25;10357378;28;1978;-45
2023/01/18 18:06:25;;;;;;;;;;;;;;;20.88;29.44;94006.69;10361406;28;1976;-47
2023/01/18 18:11:25;;;;;;;;;;;;;;;20.86;29.59;94017.56;10358251;28;1888;-46
2023/01/18 18:16:26;;;;;;;;;;;;;;;20.84;30.36;94024.22;10379347;28;2222;-45
2023/01/18 18:21:26;;;;;;;;;;;;;;;20.78;29.82;94028.13;10367638;28;1992;-48
2023/01/18 18:26:26;;;;;;;;;;;;;;;20.80;30.64;94033.84;10361911;28;2043;-49
2023/01/18 18:31:28;;;;;;;;;;;;;;;20.80;29.72;94039.88;10352846;28;2054;-45
2023/01/18 18:36:28;;;;;;;;;;;;;;;20.54;30.82;94036.56;10354816;28;2113;-45
2023/01/18 18:41:28;;;;;;;;;;;;;;;20.37;30.97;94041.84;10354526;28;1959;-46
2023/01/18 18:46:29;;;;;;;;;;;;;;;20.20;31.26;94053.19;10365987;28;2054;-51
2023/01/18 18:51:29;;;;;;;;;;;;;;;20.07;31.57;94063.84;10368957;28;1756;-49
2023/01/18 18:56:29;;;;;;;;;;;;;;;19.98;31.61;94063.84;10369351;28;1767;-50
2023/01/18 19:01:30;;;;;;;;;;;;;;;19.96;31.79;94073.13;10364146;28;1856;-47
2023/01/18 19:06:30;;;;;;;;;;;;;;;19.90;31.46;94080.41;10380641;28;1953;-50
2023/01/18 19:11:30;;;;;;;;;;;;;;;19.90;31.73;94084.88;10366454;28;1775;-49
2023/01/18 19:16:30;;;;;;;;;;;;;;;19.87;31.71;94093.38;10371595;28;1770;-49
2023/01/18 19:21:31;;;;;;;;;;;;;;;19.86;31.71;94097.09;10360607;28;1814;-48
2023/01/18 19:26:31;;;;;;;;;;;;;;;19.89;31.67;94096.47;10371579;28;1989;-50
2023/01/18 19:31:32;;;;;;;;;;;;;;;19.87;31.85;94114.41;10363509;28;1721;-51
2023/01/18 19:36:32;;;;;;;;;;;;;;;19.90;31.75;94126.94;10356876;28;1800;-62
2023/01/18 19:41:33;;;;;;;;;;;;;;;19.88;32.20;94132.53;10366655;28;1801;-48
2023/01/18 19:46:34;;;;;;;;;;;;;;;19.91;31.91;94137.16;10354723;28;2045;-50
2023/01/18 19:51:36;;;;;;;;;;;;;;;19.91;32.04;94136.38;10349887;28;2039;-49
2023/01/18 19:56:36;;;;;;;;;;;;;;;19.92;32.05;94143.19;10351738;28;1931;-51
2023/01/18 20:01:37;;;;;;;;;;;;;;;19.92;32.03;94143.97;10348010;28;2287;-51
2023/01/18 20:06:38;;;;;;;;;;;;;;;19.94;32.07;94154.97;10346873;28;1992;-52
2023/01/18 20:11:39;;;;;;;;;;;;;;;19.92;32.21;94164.22;10353912;28;2033;-51
2023/01/18 20:16:39;;;;;;;;;;;;;;;19.93;32.30;94182.31;10348963;28;2050;-50
2023/01/18 20:21:39;;;;;;;;;;;;;;;20.26;32.86;94195.88;10361086;28;2122;-50
2023/01/18 20:26:39;;;;;;;;;;;;;;;20.46;33.69;94211.06;10370719;28;1962;-47
2023/01/18 20:31:40;;;;;;;;;;;;;;;20.60;33.79;94209.06;10359421;28;1833;-48
2023/01/18 20:36:40;;;;;;;;;;;;;;;20.68;33.58;94221.44;10355924;28;1793;-50
2023/01/18 20:41:40;;;;;;;;;;;;;;;20.75;32.98;94218.34;10361217;28;1825;-48
2023/01/18 20:46:41;;;;;;;;;;;;;;;20.82;33.09;94232.59;10367854;28;1910;-51
2023/01/18 20:51:42;;;;;;;;;;;;;;;20.86;33.29;94241.41;10356153;28;1783;-50
2023/01/18 20:56:43;;;;;;;;;;;;;;;20.90;32.96;94252.88;10365533;28;1733;-49
2023/01/18 21:01:43;;;;;;;;;;;;;;;20.91;33.33;94246.53;10365049;28;1788;-52
2023/01/18 21:06:43;;;;;;;;;;;;;;;20.92;33.33;94255.97;10359633;28;1910;-50
2023/01/18 21:11:43;;;;;;;;;;;;;;;20.93;33.49;94262.81;10367591;28;1789;-49
2023/01/18 21:16:44;;;;;;;;;;;;;;;20.94;33.79;94269.59;10371471;28;1807;-49
2023/01/18 21:21:44;;;;;;;;;;;;;;;20.95;33.80;94286.19;10363109;28;1864;-49
2023/01/18 21:26:44;;;;;;;;;;;;;;;20.92;32.95;94279.69;10357636;28;1971;-50
2023/01/18 21:31:44;;;;;;;;;;;;;;;20.82;30.85;94282.63;10355177;28;1971;-50
2023/01/18 21:36:45;;;;;;;;;;;;;;;20.70;30.69;94284.31;10355472;28;2035;-46
2023/01/18 21:47:04;;;;;;;;;;;;;;;20.59;30.74;94294.38;10358821;28;1983;-47
2023/01/18 21:57:23;;;;;;;;;;;;;;;20.54;30.91;94310.31;10355583;28;2102;-48
2023/01/18 22:02:23;;;;;;;;;;;;;;;20.51;30.94;94310.94;10352789;28;2104;-48
2023/01/18 22:07:24;;;;;;;;;;;;;;;20.48;30.81;94316.81;10349918;28;2008;-50
2023/01/18 22:12:24;;;;;;;;;;;;;;;20.46;30.80;94316.34;10362634;28;1927;-47
2023/01/18 22:17:25;;;;;;;;;;;;;;;20.42;31.03;94310.16;10355207;28;1995;-49
2023/01/18 22:22:25;;;;;;;;;;;;;;;20.40;30.98;94317.59;10356981;28;1960;-50
2023/01/18 22:27:25;;;;;;;;;;;;;;;20.37;31.05;94323.44;10347432;28;2121;-45
2023/01/18 22:32:26;;;;;;;;;;;;;;;20.34;30.94;94331.94;10355594;28;2100;-47
2023/01/18 22:37:26;;;;;;;;;;;;;;;20.33;31.13;94338.28;10354341;28;1974;-47
2023/01/18 22:42:26;;;;;;;;;;;;;;;20.29;30.94;94337.34;10352603;28;1911;-46
2023/01/18 22:47:28;;;;;;;;;;;;;;;20.28;31.38;94341.06;10358806;28;1942;-48
2023/01/18 22:52:28;;;;;;;;;;;;;;;20.25;31.14;94352.19;10346870;28;1947;-50
2023/01/18 22:57:28;;;;;;;;;;;;;;;20.22;31.04;94352.78;10350953;28;2014;-49
2023/01/18 23:02:29;;;;;;;;;;;;;;;20.19;31.08;94350.75;10354836;28;1958;-51
2023/01/18 23:07:30;;;;;;;;;;;;;;;20.16;31.21;94357.41;10359035;28;1990;-49
2023/01/18 23:12:30;;;;;;;;;;;;;;;20.13;31.07;94367.75;10342628;28;2078;-47
2023/01/18 23:17:41;;;;;;;;;;;;;;;20.10;31.24;94374.41;10346312;28;2050;-49
2023/01/18 23:22:41;;;;;;;;;;;;;;;20.09;30.93;94375.47;10351055;28;2057;-48
2023/01/18 23:27:41;;;;;;;;;;;;;;;20.06;31.20;94378.72;10350303;28;1919;-48
2023/01/18 23:32:41;;;;;;;;;;;;;;;20.03;31.06;94381.19;10353790;28;1967;-51
2023/01/18 23:37:42;;;;;;;;;;;;;;;20.00;30.90;94387.03;10351324;28;2050;-47
2023/01/18 23:58:45;;;;;;;;;;;;;;;19.90;31.01;94409.13;10339567;28;2071;-51
